Time;durP1;ratioP1;P1;durP2;ratioP2;P2;SDS_P1;SDS_P2;PMS_P1;PMS_P2;Temp;Humidity;BMP_temperature;BMP_pressure;BME280_temperature;BME280_humidity;BME280_pressure;Samples;Min_cycle;Max_cycle;Signal;HPM_P1;HPM_P2
2023/12/09 00:00:04;;;;;;;4.33;2.33;;;7.10;99.90;;;;;;5075470;28;20699;-70
2023/12/09 00:02:30;;;;;;;3.30;2.40;;;7.10;99.90;;;;;;5075140;28;20197;-70
2023/12/09 00:04:55;;;;;;;7.83;3.00;;;7.10;99.90;;;;;;5075539;28;20987;-70
2023/12/09 00:07:21;;;;;;;7.00;2.40;;;7.10;99.90;;;;;;5075264;28;20189;-71
2023/12/09 00:09:47;;;;;;;8.83;3.00;;;7.20;99.90;;;;;;5075293;28;20668;-69
2023/12/09 00:12:12;;;;;;;5.20;2.20;;;7.30;99.90;;;;;;5075168;28;20669;-70
2023/12/09 00:14:38;;;;;;;6.90;2.87;;;7.30;99.90;;;;;;5075304;28;20728;-70
2023/12/09 00:17:03;;;;;;;6.03;2.00;;;7.30;99.90;;;;;;5073518;28;20174;-71
2023/12/09 00:19:29;;;;;;;5.70;2.50;;;7.40;99.90;;;;;;5074805;28;20181;-70
2023/12/09 00:21:54;;;;;;;8.03;2.40;;;7.50;99.90;;;;;;5074925;28;20186;-70
2023/12/09 00:24:20;;;;;;;5.90;2.17;;;7.60;99.90;;;;;;5075101;28;20173;-71
2023/12/09 00:26:46;;;;;;;5.33;2.60;;;7.60;99.90;;;;;;5075047;28;20567;-70
2023/12/09 00:29:11;;;;;;;3.50;2.30;;;7.70;99.90;;;;;;5074797;28;20535;-72
2023/12/09 00:31:37;;;;;;;3.03;1.97;;;7.70;99.90;;;;;;5074822;28;20277;-70
2023/12/09 00:34:02;;;;;;;3.83;2.27;;;7.70;99.90;;;;;;5074674;28;20170;-70
2023/12/09 00:36:28;;;;;;;5.83;2.37;;;7.70;99.90;;;;;;5074882;28;20292;-70
2023/12/09 00:38:53;;;;;;;4.63;1.80;;;7.70;99.90;;;;;;5074706;28;20179;-72
2023/12/09 00:41:19;;;;;;;7.87;1.97;;;7.70;99.90;;;;;;5073382;28;20689;-70
2023/12/09 00:43:44;;;;;;;4.93;2.10;;;7.80;99.90;;;;;;5074662;28;20251;-70
2023/12/09 00:46:10;;;;;;;4.53;2.20;;;7.80;99.90;;;;;;5074649;28;20170;-70
2023/12/09 00:48:36;;;;;;;2.30;1.33;;;7.80;99.90;;;;;;5074552;28;20718;-70
2023/12/09 00:51:02;;;;;;;5.13;1.93;;;7.80;99.90;;;;;;5074485;28;20446;-70
2023/12/09 00:53:27;;;;;;;3.57;2.00;;;7.80;99.90;;;;;;5074417;28;20189;-70
2023/12/09 00:55:53;;;;;;;2.90;1.77;;;7.80;99.90;;;;;;5074538;28;20186;-70
2023/12/09 00:58:18;;;;;;;4.30;2.00;;;7.60;99.90;;;;;;5074283;28;20174;-70
2023/12/09 01:00:44;;;;;;;5.10;1.87;;;7.60;99.90;;;;;;5074462;28;20247;-70
2023/12/09 01:03:09;;;;;;;12.73;2.27;;;7.60;99.90;;;;;;5074237;28;20194;-70
2023/12/09 01:05:35;;;;;;;6.93;1.93;;;7.60;99.90;;;;;;5074269;28;20166;-70
2023/12/09 01:08:00;;;;;;;1.70;1.60;;;7.60;99.90;;;;;;5072395;28;20170;-71
2023/12/09 01:10:25;;;;;;;5.20;2.23;;;7.50;99.90;;;;;;5074028;28;20591;-70
2023/12/09 01:12:51;;;;;;;6.10;2.90;;;7.50;99.90;;;;;;5073996;28;20171;-70
2023/12/09 01:15:17;;;;;;;5.63;2.20;;;7.50;99.90;;;;;;5074259;28;20170;-70
2023/12/09 01:17:42;;;;;;;3.20;1.80;;;7.50;99.90;;;;;;5073666;28;20545;-71
2023/12/09 01:20:09;;;;;;;9.03;2.17;;;7.50;99.90;;;;;;5073927;28;20162;-71
2023/12/09 01:22:34;;;;;;;4.70;2.00;;;7.60;99.90;;;;;;5073660;28;20529;-71
2023/12/09 01:25:00;;;;;;;5.50;1.90;;;7.50;99.90;;;;;;5073727;28;20806;-70
2023/12/09 01:27:25;;;;;;;11.40;2.40;;;7.60;99.90;;;;;;5073931;28;20178;-70
2023/12/09 01:29:51;;;;;;;7.23;1.97;;;7.60;99.90;;;;;;5073663;28;20162;-71
2023/12/09 01:32:16;;;;;;;4.07;2.07;;;7.70;99.90;;;;;;5073388;28;20170;-70
2023/12/09 01:34:42;;;;;;;5.33;2.00;;;7.60;99.90;;;;;;5073324;28;20584;-70
2023/12/09 01:37:07;;;;;;;4.80;2.47;;;7.50;99.90;;;;;;5073736;28;20173;-70
2023/12/09 01:39:33;;;;;;;6.77;2.70;;;7.40;99.90;;;;;;5073486;28;20647;-71
2023/12/09 01:42:00;;;;;;;16.67;2.23;;;7.20;99.90;;;;;;5072225;28;20206;-70
2023/12/09 01:44:25;;;;;;;5.40;1.50;;;7.20;99.90;;;;;;5073345;28;20204;-70
2023/12/09 01:46:51;;;;;;;3.83;2.40;;;7.20;99.90;;;;;;5073649;28;20433;-70
2023/12/09 01:49:16;;;;;;;4.80;2.67;;;7.10;99.90;;;;;;5073294;28;20192;-70
2023/12/09 01:51:43;;;;;;;8.00;2.27;;;7.00;99.90;;;;;;5073403;28;20849;-69
2023/12/09 01:54:09;;;;;;;5.70;3.00;;;7.00;99.90;;;;;;5073123;28;20624;-71
2023/12/09 01:56:35;;;;;;;4.03;2.40;;;6.90;99.90;;;;;;5073233;28;20880;-70
2023/12/09 01:59:02;;;;;;;6.03;2.20;;;6.80;99.90;;;;;;5072946;28;20404;-71
2023/12/09 02:01:27;;;;;;;5.63;2.63;;;6.80;99.90;;;;;;5073137;28;20791;-70
2023/12/09 02:03:53;;;;;;;7.80;2.20;;;6.70;99.90;;;;;;5073070;28;20543;-70
2023/12/09 02:06:19;;;;;;;7.27;1.67;;;6.70;99.90;;;;;;5071880;28;20178;-71
2023/12/09 02:08:45;;;;;;;10.47;2.67;;;6.70;99.90;;;;;;5072913;28;20404;-70
2023/12/09 02:11:32;;;;;;;3.10;2.83;;;6.60;99.90;;;;;;5072548;28;20984;-70
2023/12/09 02:14:03;;;;;;;7.60;2.33;;;6.60;99.90;;;;;;5073029;28;20637;-71
2023/12/09 02:16:59;;;;;;;5.97;1.90;;;6.50;99.90;;;;;;5072662;28;20408;-70
2023/12/09 02:19:26;;;;;;;10.23;2.80;;;6.50;99.90;;;;;;5072500;28;20794;-71
2023/12/09 02:22:03;;;;;;;5.60;2.33;;;6.60;99.90;;;;;;5072666;28;20424;-71
2023/12/09 02:24:30;;;;;;;3.57;1.83;;;6.70;99.90;;;;;;5072827;28;20396;-70
2023/12/09 02:27:12;;;;;;;2.47;2.03;;;6.70;99.90;;;;;;5072927;28;20416;-69
2023/12/09 02:30:03;;;;;;;4.30;1.83;;;6.60;99.90;;;;;;5072484;28;20393;-71
2023/12/09 02:32:33;;;;;;;5.70;2.23;;;6.60;99.90;;;;;;5072407;28;20400;-70
2023/12/09 02:35:01;;;;;;;4.43;3.77;;;6.50;99.90;;;;;;5072562;28;20441;-70
2023/12/09 02:37:28;;;;;;;7.73;2.40;;;6.50;99.90;;;;;;5072432;28;20397;-70
2023/12/09 02:39:54;;;;;;;3.60;1.93;;;6.50;99.90;;;;;;5071035;28;20474;-70
2023/12/09 02:42:20;;;;;;;6.80;2.70;;;6.40;99.90;;;;;;5072247;28;20448;-70
2023/12/09 02:44:48;;;;;;;4.53;2.20;;;6.50;99.90;;;;;;5071153;28;20942;-71
2023/12/09 02:47:14;;;;;;;6.43;2.40;;;6.40;99.90;;;;;;5072400;28;20399;-70
2023/12/09 02:49:40;;;;;;;3.47;1.70;;;6.40;99.90;;;;;;5072142;28;20804;-71
2023/12/09 02:52:06;;;;;;;7.23;1.93;;;6.40;99.90;;;;;;5072079;28;20436;-70
2023/12/09 02:54:32;;;;;;;4.37;2.20;;;6.40;99.90;;;;;;5072093;28;20481;-70
2023/12/09 02:56:57;;;;;;;4.47;2.10;;;6.40;99.90;;;;;;5072207;28;20174;-70
2023/12/09 02:59:23;;;;;;;4.70;1.90;;;6.40;99.90;;;;;;5070806;28;20170;-69
2023/12/09 03:01:48;;;;;;;6.30;2.33;;;6.40;99.90;;;;;;5070671;28;20228;-70
2023/12/09 03:04:14;;;;;;;4.73;2.40;;;6.40;99.90;;;;;;5072147;28;20166;-70
2023/12/09 03:06:40;;;;;;;11.23;2.83;;;6.30;99.90;;;;;;5072113;28;20250;-69
2023/12/09 03:09:05;;;;;;;2.77;1.63;;;6.30;99.90;;;;;;5072044;28;20170;-70
2023/12/09 03:11:31;;;;;;;5.70;2.10;;;6.30;99.90;;;;;;5071950;28;20269;-70
2023/12/09 03:13:56;;;;;;;5.97;2.47;;;6.30;99.90;;;;;;5071953;28;20219;-71
2023/12/09 03:16:22;;;;;;;8.80;2.20;;;6.30;99.90;;;;;;5072016;28;20167;-69
2023/12/09 03:18:47;;;;;;;5.30;2.07;;;6.20;99.90;;;;;;5071837;28;20223;-69
2023/12/09 03:21:14;;;;;;;7.43;2.53;;;6.20;99.90;;;;;;5070682;28;20225;-69
2023/12/09 03:23:42;;;;;;;9.47;2.90;;;6.20;99.90;;;;;;5070928;28;20695;-69
2023/12/09 03:26:15;;;;;;;8.60;2.17;;;6.10;99.90;;;;;;5071947;28;20450;-69
2023/12/09 03:28:41;;;;;;;5.97;2.33;;;6.10;99.90;;;;;;5070504;28;20411;-69
2023/12/09 03:31:08;;;;;;;5.53;3.10;;;6.20;99.90;;;;;;5071750;28;20931;-70
2023/12/09 03:33:34;;;;;;;8.90;1.93;;;6.10;99.90;;;;;;5071739;28;20403;-70
2023/12/09 03:35:59;;;;;;;7.00;2.70;;;6.10;99.90;;;;;;5071839;28;20907;-70
2023/12/09 03:38:25;;;;;;;2.97;2.30;;;6.10;99.90;;;;;;5071612;28;20587;-70
2023/12/09 03:40:50;;;;;;;8.70;2.43;;;6.10;99.90;;;;;;5071875;28;20213;-70
2023/12/09 03:43:16;;;;;;;6.20;2.53;;;6.00;99.90;;;;;;5071650;28;20194;-70
2023/12/09 03:45:41;;;;;;;10.87;2.20;;;6.00;99.90;;;;;;5070230;28;20216;-69
2023/12/09 03:48:07;;;;;;;7.23;2.70;;;5.90;99.90;;;;;;5071293;28;20163;-70
2023/12/09 03:50:32;;;;;;;3.13;1.67;;;5.90;99.90;;;;;;5071672;28;20196;-69
2023/12/09 03:52:58;;;;;;;11.93;3.27;;;5.90;99.90;;;;;;5071521;28;20176;-69
2023/12/09 03:55:23;;;;;;;4.63;2.30;;;5.80;99.90;;;;;;5071434;28;20665;-69
2023/12/09 03:57:49;;;;;;;9.90;2.00;;;5.80;99.90;;;;;;5071388;28;20163;-71
2023/12/09 04:00:15;;;;;;;2.33;1.60;;;5.80;99.90;;;;;;5071463;28;20235;-69
2023/12/09 04:02:40;;;;;;;8.37;2.23;;;5.80;99.90;;;;;;5071371;28;20668;-69
2023/12/09 04:05:06;;;;;;;7.00;1.80;;;5.70;99.90;;;;;;5071473;28;20408;-69
2023/12/09 04:07:32;;;;;;;2.87;1.93;;;5.70;99.90;;;;;;5071481;28;20628;-70
2023/12/09 04:09:57;;;;;;;6.73;1.87;;;5.70;99.90;;;;;;5071241;28;20403;-70
2023/12/09 04:12:23;;;;;;;4.60;1.87;;;5.70;99.90;;;;;;5069905;28;20554;-70
2023/12/09 04:14:48;;;;;;;2.70;1.93;;;5.50;99.90;;;;;;5071401;28;20716;-69
2023/12/09 04:17:14;;;;;;;8.83;2.30;;;5.60;99.90;;;;;;5071349;28;20171;-69
2023/12/09 04:19:39;;;;;;;4.17;2.33;;;5.50;99.90;;;;;;5071181;28;20544;-69
2023/12/09 04:22:05;;;;;;;8.30;2.27;;;5.40;99.90;;;;;;5069840;28;20208;-69
2023/12/09 04:24:31;;;;;;;4.10;1.93;;;5.40;99.90;;;;;;5071329;28;20212;-69
2023/12/09 04:26:57;;;;;;;3.37;2.50;;;5.40;99.90;;;;;;5071241;28;20154;-69
2023/12/09 04:29:22;;;;;;;5.73;2.73;;;5.40;99.90;;;;;;5071144;28;20779;-69
2023/12/09 04:31:48;;;;;;;4.67;2.40;;;5.40;99.90;;;;;;5070991;28;20241;-70
2023/12/09 04:34:14;;;;;;;2.57;2.20;;;5.40;99.90;;;;;;5071908;28;20158;-69
2023/12/09 04:36:39;;;;;;;7.13;2.43;;;5.40;99.90;;;;;;5074875;28;20170;-69
2023/12/09 04:39:05;;;;;;;6.73;2.33;;;5.40;99.90;;;;;;5074642;28;20166;-69
2023/12/09 04:41:30;;;;;;;6.60;2.50;;;5.40;99.90;;;;;;5074706;28;20182;-69
2023/12/09 04:43:56;;;;;;;8.00;3.43;;;5.40;99.90;;;;;;5073327;28;20201;-70
2023/12/09 04:46:22;;;;;;;4.87;2.87;;;5.50;99.90;;;;;;5074687;28;20162;-69
2023/12/09 04:48:47;;;;;;;9.10;3.87;;;5.50;99.90;;;;;;5074541;28;20236;-69
2023/12/09 04:51:13;;;;;;;2.70;2.00;;;5.50;99.90;;;;;;5074598;28;20257;-70
2023/12/09 04:53:38;;;;;;;3.70;2.80;;;5.50;99.90;;;;;;5074283;28;20189;-69
2023/12/09 04:56:05;;;;;;;3.33;1.97;;;5.40;99.90;;;;;;5073221;28;20212;-69
2023/12/09 04:58:31;;;;;;;5.83;2.20;;;5.40;99.90;;;;;;5074187;28;20181;-69
2023/12/09 05:00:56;;;;;;;4.27;3.07;;;5.30;99.90;;;;;;5074274;28;20420;-69
2023/12/09 05:03:22;;;;;;;6.33;2.53;;;5.20;99.90;;;;;;5072988;28;20193;-70
2023/12/09 05:05:47;;;;;;;6.40;2.50;;;5.10;99.90;;;;;;5074349;28;20198;-70
2023/12/09 05:08:13;;;;;;;3.07;2.67;;;5.10;99.90;;;;;;5074061;28;20194;-69
2023/12/09 05:10:38;;;;;;;4.20;2.93;;;5.00;99.90;;;;;;5074232;28;20186;-71
2023/12/09 05:13:04;;;;;;;6.30;3.90;;;5.00;99.90;;;;;;5074115;28;20178;-70
2023/12/09 05:15:29;;;;;;;6.70;3.67;;;5.00;99.90;;;;;;5073960;28;20220;-71
2023/12/09 05:17:55;;;;;;;9.33;3.40;;;5.00;99.90;;;;;;5073722;28;20268;-70
2023/12/09 05:20:22;;;;;;;8.23;3.30;;;5.00;99.90;;;;;;5073944;28;20565;-71
2023/12/09 05:22:47;;;;;;;11.03;4.70;;;5.00;99.90;;;;;;5073852;28;20194;-71
2023/12/09 05:25:13;;;;;;;6.00;3.47;;;5.00;99.90;;;;;;5074026;28;20408;-70
2023/12/09 05:27:39;;;;;;;6.00;4.10;;;5.10;99.90;;;;;;5074068;28;20537;-69
2023/12/09 05:30:05;;;;;;;8.10;4.30;;;5.00;99.90;;;;;;5073760;28;20558;-70
2023/12/09 05:32:30;;;;;;;7.17;4.33;;;5.00;99.90;;;;;;5073741;28;20170;-69
2023/12/09 05:34:56;;;;;;;7.80;3.50;;;4.90;99.90;;;;;;5073795;28;20470;-70
2023/12/09 05:37:22;;;;;;;8.23;4.03;;;4.90;99.90;;;;;;5073794;28;20170;-69
2023/12/09 05:39:47;;;;;;;6.93;3.60;;;4.90;99.90;;;;;;5073249;28;20174;-69
2023/12/09 05:42:14;;;;;;;5.77;3.80;;;4.90;99.90;;;;;;5073447;28;20210;-70
2023/12/09 05:44:40;;;;;;;12.53;5.43;;;4.80;99.90;;;;;;5073638;28;20163;-69
2023/12/09 05:47:05;;;;;;;10.40;4.83;;;4.80;99.90;;;;;;5072711;28;20470;-69
2023/12/09 05:49:31;;;;;;;10.30;4.03;;;4.80;99.90;;;;;;5072094;28;20166;-69
2023/12/09 05:51:56;;;;;;;11.27;5.17;;;4.90;99.90;;;;;;5073280;28;20754;-69
2023/12/09 05:54:22;;;;;;;6.80;4.33;;;4.90;99.90;;;;;;5073310;28;20695;-69
2023/12/09 05:56:51;;;;;;;10.40;5.70;;;4.80;99.90;;;;;;5072037;28;20401;-69
2023/12/09 05:59:17;;;;;;;4.20;3.83;;;4.90;99.90;;;;;;5073144;28;20178;-69
2023/12/09 06:01:42;;;;;;;6.20;4.17;;;4.90;99.90;;;;;;5073171;28;20420;-69
2023/12/09 06:04:08;;;;;;;6.63;4.67;;;4.90;99.90;;;;;;5073191;28;20608;-70
2023/12/09 06:06:34;;;;;;;11.43;4.77;;;4.90;99.90;;;;;;5073234;28;20166;-69
2023/12/09 06:08:59;;;;;;;8.53;4.27;;;4.90;99.90;;;;;;5072899;28;20245;-70
2023/12/09 06:11:25;;;;;;;9.30;3.60;;;4.90;99.90;;;;;;5073076;28;20425;-70
2023/12/09 06:13:51;;;;;;;7.67;4.20;;;4.90;99.90;;;;;;5072985;28;20174;-69
2023/12/09 06:16:18;;;;;;;7.47;4.60;;;4.90;99.90;;;;;;5073061;28;20649;-69
2023/12/09 06:18:43;;;;;;;7.67;4.40;;;4.90;99.90;;;;;;5072612;28;20162;-70
2023/12/09 06:21:09;;;;;;;10.00;5.27;;;4.90;99.90;;;;;;5072905;28;20768;-69
2023/12/09 06:23:36;;;;;;;5.30;3.50;;;4.90;99.90;;;;;;5072817;28;20639;-69
2023/12/09 06:26:03;;;;;;;8.93;4.27;;;4.90;99.90;;;;;;5072826;28;20668;-69
2023/12/09 06:28:28;;;;;;;12.90;4.50;;;4.90;99.90;;;;;;5071228;28;20439;-70
2023/12/09 06:30:54;;;;;;;8.13;4.40;;;4.80;99.90;;;;;;5072589;28;20915;-70
2023/12/09 06:33:20;;;;;;;7.87;4.80;;;4.80;99.90;;;;;;5072864;28;20159;-70
2023/12/09 06:35:45;;;;;;;7.33;4.60;;;4.80;99.90;;;;;;5072581;28;20177;-69
2023/12/09 06:38:11;;;;;;;9.43;4.30;;;4.80;99.90;;;;;;5072337;28;20169;-69
2023/12/09 06:40:36;;;;;;;10.60;3.97;;;4.80;99.90;;;;;;5072320;28;20190;-69
2023/12/09 06:43:02;;;;;;;5.70;3.77;;;4.70;99.90;;;;;;5072316;28;20193;-71
2023/12/09 06:45:27;;;;;;;6.33;4.13;;;4.80;99.90;;;;;;5072443;28;20159;-70
2023/12/09 06:47:54;;;;;;;6.20;4.03;;;4.70;99.90;;;;;;5070950;28;20166;-70
2023/12/09 06:50:21;;;;;;;6.10;3.47;;;4.80;99.90;;;;;;5071101;28;20189;-71
2023/12/09 06:52:46;;;;;;;13.23;4.10;;;4.70;99.90;;;;;;5072263;28;20407;-69
2023/12/09 06:55:12;;;;;;;4.73;3.53;;;4.60;99.90;;;;;;5071007;28;20944;-69
2023/12/09 06:57:37;;;;;;;7.43;4.10;;;4.60;99.90;;;;;;5072047;28;20791;-70
2023/12/09 07:00:07;;;;;;;10.13;4.13;;;4.50;99.90;;;;;;5071989;28;20166;-70
2023/12/09 07:02:33;;;;;;;6.17;3.30;;;4.60;99.90;;;;;;5072201;28;20240;-69
2023/12/09 07:04:58;;;;;;;9.63;3.40;;;4.50;99.90;;;;;;5071949;28;20408;-70
2023/12/09 07:07:24;;;;;;;6.27;4.00;;;4.50;99.90;;;;;;5071723;28;20162;-69
2023/12/09 07:09:49;;;;;;;4.53;3.00;;;4.40;99.90;;;;;;5071696;28;20166;-69
2023/12/09 07:12:15;;;;;;;8.57;4.77;;;4.50;99.90;;;;;;5071922;28;20560;-70
2023/12/09 07:14:40;;;;;;;6.37;4.03;;;4.50;99.90;;;;;;5072019;28;20668;-70
2023/12/09 07:17:06;;;;;;;4.53;3.60;;;4.50;99.90;;;;;;5071961;28;20170;-69
2023/12/09 07:19:32;;;;;;;3.90;3.27;;;4.50;99.90;;;;;;5071835;28;20174;-69
2023/12/09 07:21:57;;;;;;;6.63;4.17;;;4.50;99.90;;;;;;5071807;28;20185;-70
2023/12/09 07:24:23;;;;;;;7.50;4.07;;;4.50;99.90;;;;;;5072001;28;20244;-68
2023/12/09 07:26:48;;;;;;;7.50;4.40;;;4.50;99.90;;;;;;5071972;28;20162;-67
2023/12/09 07:29:14;;;;;;;11.30;3.20;;;4.50;99.90;;;;;;5072147;28;20767;-69
2023/12/09 07:31:40;;;;;;;6.47;3.40;;;4.50;99.90;;;;;;5072095;28;20274;-70
2023/12/09 07:34:05;;;;;;;9.13;4.40;;;4.50;99.90;;;;;;5072139;28;20455;-71
2023/12/09 07:36:31;;;;;;;7.30;3.53;;;4.60;99.90;;;;;;5072066;28;20548;-70
2023/12/09 07:38:57;;;;;;;5.37;3.17;;;4.60;99.90;;;;;;5071773;28;20237;-71
2023/12/09 07:41:22;;;;;;;6.03;2.90;;;4.70;99.90;;;;;;5070743;28;20186;-73
2023/12/09 07:43:48;;;;;;;2.70;2.50;;;4.70;99.90;;;;;;5072001;28;20699;-70
2023/12/09 07:46:13;;;;;;;7.43;3.70;;;4.80;99.90;;;;;;5071829;28;20311;-70
2023/12/09 07:48:39;;;;;;;5.47;3.70;;;4.70;99.90;;;;;;5071370;28;20510;-71
2023/12/09 07:51:05;;;;;;;11.83;4.00;;;4.80;99.90;;;;;;5071750;28;20193;-70
2023/12/09 07:53:30;;;;;;;3.60;3.10;;;4.90;99.90;;;;;;5071504;28;20178;-70
2023/12/09 07:55:57;;;;;;;4.57;2.73;;;4.90;99.90;;;;;;5071736;28;20498;-70
2023/12/09 07:58:23;;;;;;;3.43;2.70;;;4.90;99.90;;;;;;5071561;28;20162;-71
2023/12/09 08:00:49;;;;;;;6.53;3.00;;;5.00;99.90;;;;;;5071585;28;20507;-71
2023/12/09 08:03:15;;;;;;;6.60;4.10;;;5.00;99.90;;;;;;5071268;28;20556;-70
2023/12/09 08:05:40;;;;;;;3.80;2.80;;;5.00;99.90;;;;;;5071680;28;20166;-70
2023/12/09 08:08:06;;;;;;;3.97;3.60;;;5.10;99.90;;;;;;5071242;28;20162;-70
2023/12/09 08:10:31;;;;;;;6.70;3.20;;;5.20;99.90;;;;;;5074081;28;20188;-71
2023/12/09 08:12:57;;;;;;;5.00;3.73;;;5.30;99.90;;;;;;5075229;28;20586;-70
2023/12/09 08:15:23;;;;;;;4.03;3.60;;;5.30;99.90;;;;;;5075349;28;20174;-70
2023/12/09 08:17:48;;;;;;;6.43;2.90;;;5.40;99.90;;;;;;5075057;28;20182;-71
2023/12/09 08:20:14;;;;;;;3.67;3.27;;;5.50;99.90;;;;;;5074712;28;20242;-71
2023/12/09 08:22:39;;;;;;;7.10;3.30;;;5.60;99.90;;;;;;5075091;28;20564;-70
2023/12/09 08:25:07;;;;;;;6.40;3.77;;;5.70;99.90;;;;;;5075102;28;20177;-69
2023/12/09 08:27:32;;;;;;;8.30;3.40;;;5.80;99.90;;;;;;5075123;28;20185;-70
2023/12/09 08:29:58;;;;;;;12.43;3.73;;;5.80;99.90;;;;;;5074814;28;20952;-71
2023/12/09 08:32:24;;;;;;;7.33;3.60;;;5.90;99.90;;;;;;5074694;28;20228;-71
2023/12/09 08:34:50;;;;;;;4.27;3.53;;;5.90;99.90;;;;;;5073626;28;20695;-71
2023/12/09 08:37:16;;;;;;;8.00;3.03;;;6.00;99.90;;;;;;5074936;28;20405;-70
2023/12/09 08:39:42;;;;;;;7.13;4.20;;;6.10;99.90;;;;;;5074678;28;20166;-70
2023/12/09 08:42:08;;;;;;;8.37;4.10;;;6.10;99.90;;;;;;5074546;28;20817;-70
2023/12/09 08:44:34;;;;;;;6.20;3.50;;;6.20;99.90;;;;;;5073489;28;20989;-71
2023/12/09 08:46:59;;;;;;;4.70;3.47;;;6.30;99.90;;;;;;5074681;28;20492;-70
2023/12/09 08:49:27;;;;;;;6.87;3.97;;;6.40;99.90;;;;;;5074651;28;20158;-70
2023/12/09 08:51:52;;;;;;;15.37;4.03;;;6.50;99.90;;;;;;5074511;28;20178;-71
2023/12/09 08:54:18;;;;;;;7.17;3.27;;;6.60;99.90;;;;;;5074451;28;20443;-70
2023/12/09 08:56:43;;;;;;;4.87;2.70;;;6.70;99.90;;;;;;5074713;28;20174;-70
2023/12/09 08:59:10;;;;;;;4.30;3.43;;;6.80;99.90;;;;;;5074395;28;20173;-71
2023/12/09 09:01:35;;;;;;;7.00;3.60;;;6.80;99.90;;;;;;5074382;28;20568;-70
2023/12/09 09:04:01;;;;;;;7.90;3.40;;;6.90;99.90;;;;;;5074402;28;20459;-70
2023/12/09 09:06:27;;;;;;;9.97;3.67;;;6.90;99.90;;;;;;5073197;28;20206;-70
2023/12/09 09:08:52;;;;;;;5.63;3.20;;;7.00;99.90;;;;;;5074372;28;20645;-71
2023/12/09 09:11:19;;;;;;;7.13;3.57;;;7.00;99.90;;;;;;5074256;28;20474;-70
2023/12/09 09:13:45;;;;;;;10.53;2.93;;;7.10;99.90;;;;;;5074268;28;20178;-70
2023/12/09 09:16:11;;;;;;;7.47;2.97;;;7.20;99.90;;;;;;5074323;28;20412;-71
2023/12/09 09:18:36;;;;;;;8.23;3.30;;;7.30;99.90;;;;;;5070173;28;20258;-71
2023/12/09 09:21:02;;;;;;;7.73;2.90;;;7.40;99.90;;;;;;5062264;28;20631;-71
2023/12/09 09:23:28;;;;;;;7.97;3.63;;;7.50;99.90;;;;;;5058032;28;20195;-70
2023/12/09 09:25:54;;;;;;;10.33;2.90;;;7.70;99.90;;;;;;5053988;28;20166;-71
2023/12/09 09:28:20;;;;;;;6.03;3.37;;;8.00;99.90;;;;;;5053760;28;20398;-71
2023/12/09 09:30:45;;;;;;;4.10;3.00;;;8.20;99.90;;;;;;5053904;28;20187;-71
2023/12/09 09:33:11;;;;;;;3.50;2.50;;;8.40;99.90;;;;;;5053756;28;20163;-72
2023/12/09 09:35:36;;;;;;;3.87;2.63;;;8.70;99.90;;;;;;5053915;28;20174;-71
2023/12/09 09:38:02;;;;;;;8.40;2.90;;;8.80;99.90;;;;;;5053646;28;20174;-71
2023/12/09 09:40:27;;;;;;;4.40;2.50;;;8.70;99.90;;;;;;5053576;28;20194;-71
2023/12/09 09:42:58;;;;;;;6.10;2.40;;;8.70;99.90;;;;;;5053539;28;20282;-71
2023/12/09 09:45:27;;;;;;;9.10;3.90;;;8.60;99.90;;;;;;5053585;28;20163;-71
2023/12/09 09:47:54;;;;;;;5.70;2.50;;;8.70;99.90;;;;;;5053445;28;20911;-72
2023/12/09 09:50:22;;;;;;;8.30;2.77;;;8.60;99.90;;;;;;5053659;28;20768;-71
2023/12/09 09:52:49;;;;;;;6.73;2.90;;;8.60;99.90;;;;;;5053439;28;20401;-70
2023/12/09 09:55:16;;;;;;;9.33;2.80;;;8.60;99.90;;;;;;5052124;28;20571;-71
2023/12/09 09:57:42;;;;;;;11.50;3.13;;;8.60;99.90;;;;;;5053436;28;20409;-72
2023/12/09 10:00:13;;;;;;;9.37;3.30;;;8.70;99.90;;;;;;5053246;28;20488;-72
2023/12/09 10:02:42;;;;;;;5.27;2.37;;;8.90;99.90;;;;;;5053142;28;20448;-71
2023/12/09 10:05:08;;;;;;;5.07;2.40;;;9.10;99.90;;;;;;5053229;28;20489;-72
2023/12/09 10:07:35;;;;;;;9.20;2.87;;;9.30;99.90;;;;;;5053246;28;20452;-71
2023/12/09 10:10:02;;;;;;;5.97;2.63;;;9.40;99.90;;;;;;5052943;28;20398;-71
2023/12/09 10:12:28;;;;;;;4.17;3.50;;;9.50;99.90;;;;;;5053080;28;20455;-71
2023/12/09 10:14:54;;;;;;;5.73;2.70;;;9.50;99.90;;;;;;5053077;28;20401;-71
2023/12/09 10:17:23;;;;;;;4.90;2.27;;;9.60;99.90;;;;;;5052994;28;20178;-72
2023/12/09 10:19:48;;;;;;;3.43;2.37;;;9.60;99.90;;;;;;5052894;28;20589;-71
2023/12/09 10:22:14;;;;;;;6.07;2.67;;;9.60;99.90;;;;;;5052634;28;20429;-70
2023/12/09 10:24:47;;;;;;;5.30;2.43;;;9.60;99.90;;;;;;5058560;28;20165;-71
2023/12/09 10:27:12;;;;;;;5.47;2.47;;;9.70;99.90;;;;;;5061003;28;20787;-71
2023/12/09 10:29:38;;;;;;;4.20;2.57;;;9.60;99.90;;;;;;5052658;28;20489;-71
2023/12/09 10:32:04;;;;;;;4.50;2.43;;;9.70;99.90;;;;;;5052172;28;20244;-71
2023/12/09 10:34:30;;;;;;;9.87;2.60;;;9.70;99.90;;;;;;5051151;28;20178;-71
2023/12/09 10:36:55;;;;;;;6.40;2.90;;;9.80;99.90;;;;;;5052570;28;20788;-71
2023/12/09 10:39:21;;;;;;;8.00;2.60;;;10.00;99.90;;;;;;5055038;28;20258;-71
2023/12/09 10:41:47;;;;;;;11.03;2.40;;;10.20;99.90;;;;;;5072184;28;20190;-71
2023/12/09 10:44:12;;;;;;;7.83;2.50;;;10.30;99.90;;;;;;5072250;28;20234;-72
2023/12/09 10:46:38;;;;;;;6.50;3.07;;;10.40;99.90;;;;;;5072513;28;20412;-71
2023/12/09 10:49:04;;;;;;;3.63;2.90;;;10.40;99.90;;;;;;5072271;28;20642;-70
2023/12/09 10:51:29;;;;;;;10.80;3.27;;;10.40;99.90;;;;;;5072209;28;20187;-71
2023/12/09 10:53:55;;;;;;;4.87;2.17;;;10.40;99.90;;;;;;5071951;28;20189;-72
2023/12/09 10:56:21;;;;;;;4.80;1.60;;;10.50;99.90;;;;;;5072274;28;20580;-71
2023/12/09 10:58:48;;;;;;;5.10;2.30;;;10.50;99.90;;;;;;5071601;28;20431;-71
2023/12/09 11:01:16;;;;;;;11.27;1.87;;;10.50;99.90;;;;;;5072177;28;20423;-71
2023/12/09 11:03:41;;;;;;;2.47;1.63;;;10.40;99.90;;;;;;5072053;28;20472;-71
2023/12/09 11:06:08;;;;;;;3.83;1.80;;;10.40;99.90;;;;;;5072204;28;20768;-71
2023/12/09 11:08:36;;;;;;;3.23;1.27;;;10.30;99.90;;;;;;5071878;28;20253;-71
2023/12/09 11:11:05;;;;;;;7.47;1.70;;;10.30;99.90;;;;;;5072056;28;20420;-70
2023/12/09 11:13:33;;;;;;;6.13;2.00;;;10.30;99.90;;;;;;5072110;28;20504;-71
2023/12/09 11:16:13;;;;;;;2.87;1.77;;;10.20;99.90;;;;;;5072098;28;20438;-71
2023/12/09 11:18:52;;;;;;;4.20;1.37;;;10.20;99.90;;;;;;5071779;28;20411;-71
2023/12/09 11:21:27;;;;;;;4.77;1.50;;;10.20;99.90;;;;;;5071920;28;20506;-71
2023/12/09 11:23:57;;;;;;;12.83;2.07;;;10.10;99.90;;;;;;5071916;28;20865;-71
2023/12/09 11:26:31;;;;;;;4.70;1.70;;;10.10;99.90;;;;;;5071993;28;20504;-72
2023/12/09 11:29:04;;;;;;;6.17;2.33;;;10.10;99.90;;;;;;5071846;28;20514;-71
2023/12/09 11:31:33;;;;;;;9.73;2.07;;;10.00;99.90;;;;;;5070511;28;20464;-71
2023/12/09 11:34:14;;;;;;;3.50;1.73;;;10.00;99.90;;;;;;5071855;28;20427;-70
2023/12/09 11:36:40;;;;;;;2.70;1.17;;;10.00;99.90;;;;;;5071839;28;20440;-71
2023/12/09 11:39:17;;;;;;;8.20;2.37;;;10.00;99.90;;;;;;5071625;28;20416;-70
2023/12/09 11:41:44;;;;;;;8.30;1.80;;;9.90;99.90;;;;;;5071635;28;20879;-72
2023/12/09 11:44:11;;;;;;;5.40;1.77;;;9.90;99.90;;;;;;5072362;28;20501;-71
2023/12/09 11:46:38;;;;;;;10.13;2.00;;;9.90;99.90;;;;;;5074659;28;20443;-70
2023/12/09 11:49:05;;;;;;;4.77;1.87;;;9.90;99.90;;;;;;5075792;28;20400;-71
2023/12/09 11:51:34;;;;;;;10.10;2.10;;;9.90;99.90;;;;;;5075696;28;20476;-71
2023/12/09 11:54:01;;;;;;;7.93;2.40;;;9.80;99.90;;;;;;5075732;28;20432;-70
2023/12/09 11:56:27;;;;;;;5.33;1.97;;;9.80;99.90;;;;;;5075688;28;21114;-70
2023/12/09 11:58:54;;;;;;;2.03;1.83;;;9.80;99.90;;;;;;5075663;28;20462;-71
2023/12/09 12:01:20;;;;;;;7.10;2.30;;;9.80;99.90;;;;;;5074415;28;20436;-71
2023/12/09 12:03:47;;;;;;;3.00;1.60;;;9.80;99.90;;;;;;5075525;28;20538;-71
2023/12/09 12:06:14;;;;;;;6.53;1.90;;;9.80;99.90;;;;;;5075529;28;20405;-71
2023/12/09 12:08:40;;;;;;;5.67;1.63;;;9.80;99.90;;;;;;5075346;28;20768;-71
2023/12/09 12:11:06;;;;;;;3.37;1.40;;;9.80;99.90;;;;;;5075358;28;20427;-71
2023/12/09 12:13:32;;;;;;;2.40;1.63;;;9.80;99.90;;;;;;5075316;28;20170;-71
2023/12/09 12:15:58;;;;;;;2.70;1.50;;;9.70;99.90;;;;;;5075541;28;20531;-72
2023/12/09 12:18:24;;;;;;;4.47;1.63;;;9.60;99.90;;;;;;5075213;28;20413;-72
2023/12/09 12:20:50;;;;;;;3.73;1.60;;;9.50;99.90;;;;;;5075234;28;20269;-71
2023/12/09 12:23:15;;;;;;;7.10;1.53;;;9.40;99.90;;;;;;5075118;28;20190;-72
2023/12/09 12:25:41;;;;;;;10.90;2.10;;;9.30;99.90;;;;;;5074288;28;20400;-71
2023/12/09 12:28:07;;;;;;;4.33;1.73;;;9.10;99.90;;;;;;5074999;28;20396;-71
2023/12/09 12:30:32;;;;;;;4.27;2.70;;;9.00;99.90;;;;;;5075022;28;20188;-71
2023/12/09 12:32:58;;;;;;;2.60;1.90;;;8.90;99.90;;;;;;5074992;28;20166;-71
2023/12/09 12:35:24;;;;;;;3.80;1.50;;;8.90;99.90;;;;;;5074967;28;20166;-70
2023/12/09 12:37:53;;;;;;;3.40;1.60;;;8.90;99.90;;;;;;5074778;28;20162;-69
2023/12/09 12:40:19;;;;;;;9.13;2.07;;;8.90;99.90;;;;;;5073685;28;20436;-69
2023/12/09 12:42:44;;;;;;;2.13;1.43;;;8.80;99.90;;;;;;5073764;28;20543;-69
2023/12/09 12:45:20;;;;;;;2.53;1.03;;;8.70;99.90;;;;;;5075319;28;20169;-69
2023/12/09 12:47:46;;;;;;;3.10;1.37;;;8.60;99.90;;;;;;5075181;28;20241;-69
2023/12/09 12:50:12;;;;;;;7.57;1.90;;;8.50;99.90;;;;;;5074861;28;20435;-69